createdAt,value
2023-01-15T00:00:22.475Z,5.50
2023-01-15T00:02:50.502Z,3.57
2023-01-15T00:05:18.577Z,4.50
2023-01-15T00:07:47.778Z,3.20
2023-01-15T00:10:15.689Z,3.87
2023-01-15T00:12:43.476Z,3.33
2023-01-15T00:15:14.413Z,5.07
2023-01-15T00:17:42.584Z,3.40
2023-01-15T00:20:11.977Z,2.73
2023-01-15T00:22:39.761Z,4.47
2023-01-15T00:25:28.272Z,4.73
2023-01-15T00:27:59.853Z,4.93
2023-01-15T00:30:29.605Z,6.07
2023-01-15T00:32:58.857Z,3.93
2023-01-15T00:35:28.110Z,4.67
2023-01-15T00:37:56.131Z,5.73
2023-01-15T00:40:25.422Z,6.53
2023-01-15T00:42:54.738Z,5.10
2023-01-15T00:45:23.066Z,4.17
2023-01-15T00:47:54.897Z,4.17
2023-01-15T00:50:23.338Z,5.70
2023-01-15T00:52:51.198Z,7.17
2023-01-15T00:55:19.167Z,4.53
2023-01-15T00:57:48.800Z,4.20
2023-01-15T01:00:17.522Z,6.20
2023-01-15T01:02:45.558Z,6.60
2023-01-15T01:05:14.917Z,4.97
2023-01-15T01:07:42.952Z,5.73
2023-01-15T01:10:11.614Z,4.30
2023-01-15T01:12:39.677Z,3.47
2023-01-15T01:15:10.974Z,5.90
2023-01-15T01:17:39.784Z,4.30
2023-01-15T01:20:10.167Z,4.50
2023-01-15T01:22:38.135Z,3.33
2023-01-15T01:25:06.793Z,5.27
2023-01-15T01:27:34.867Z,4.13
2023-01-15T01:30:02.958Z,3.30
2023-01-15T01:32:33.051Z,5.33
2023-01-15T01:35:01.196Z,3.53
2023-01-15T01:37:29.095Z,5.47
2023-01-15T01:39:57.170Z,3.47
2023-01-15T01:42:25.970Z,5.87
2023-01-15T01:45:18.824Z,5.43
2023-01-15T01:47:48.782Z,6.43
2023-01-15T01:50:16.623Z,4.53
2023-01-15T01:52:49.265Z,6.83
2023-01-15T01:55:19.603Z,7.93
2023-01-15T01:57:49.194Z,5.97
2023-01-15T02:00:17.668Z,6.73
2023-01-15T02:02:50.472Z,4.20
2023-01-15T02:05:28.260Z,3.13
2023-01-15T02:07:56.584Z,4.17
2023-01-15T02:10:24.642Z,5.33
2023-01-15T02:13:01.355Z,4.33
2023-01-15T02:15:33.759Z,4.80
2023-01-15T02:18:13.101Z,6.53
2023-01-15T02:20:45.987Z,6.47
2023-01-15T02:23:27.362Z,4.60
2023-01-15T02:26:11.849Z,5.07
2023-01-15T02:28:45.106Z,5.43
2023-01-15T02:31:18.440Z,4.07
2023-01-15T02:33:52.443Z,6.63
2023-01-15T02:36:24.271Z,6.53
2023-01-15T02:38:57.092Z,6.80
2023-01-15T02:41:32.533Z,6.57
2023-01-15T02:44:04.875Z,6.30
2023-01-15T02:46:36.221Z,4.87
2023-01-15T02:49:07.642Z,9.90
2023-01-15T02:51:47.942Z,7.07
2023-01-15T02:54:18.697Z,6.40
2023-01-15T02:56:49.817Z,6.17
2023-01-15T02:59:26.102Z,4.47
2023-01-15T03:01:58.662Z,5.20
2023-01-15T03:04:34.005Z,9.90
2023-01-15T03:07:07.919Z,7.13
2023-01-15T03:09:36.841Z,8.53
2023-01-15T03:12:13.714Z,6.53
2023-01-15T03:14:48.233Z,8.60
2023-01-15T03:17:20.009Z,5.30
2023-01-15T03:19:52.401Z,6.37
2023-01-15T03:22:25.184Z,7.00
2023-01-15T03:24:56.798Z,5.90
2023-01-15T03:27:25.316Z,8.13
2023-01-15T03:30:00.853Z,7.77
2023-01-15T03:32:31.266Z,7.97
2023-01-15T03:35:00.458Z,7.23
2023-01-15T03:37:29.452Z,6.60
2023-01-15T03:39:58.607Z,8.90
2023-01-15T03:42:36.344Z,7.43
2023-01-15T03:45:12.093Z,5.70
2023-01-15T03:47:47.832Z,10.43
2023-01-15T03:50:23.966Z,9.17
2023-01-15T03:52:59.817Z,7.00
2023-01-15T03:55:37.146Z,11.87
2023-01-15T03:58:12.507Z,9.13
2023-01-15T04:00:45.277Z,8.80
2023-01-15T04:03:16.334Z,7.47
2023-01-15T04:05:45.296Z,10.03
2023-01-15T04:08:17.043Z,7.37
2023-01-15T04:10:55.713Z,10.00
2023-01-15T04:13:23.681Z,5.23
2023-01-15T04:15:53.865Z,9.53
2023-01-15T04:18:22.190Z,8.03
2023-01-15T04:20:50.472Z,8.90
2023-01-15T04:23:18.469Z,7.47
2023-01-15T04:25:46.600Z,10.47
2023-01-15T04:28:14.604Z,8.07
2023-01-15T04:30:43.675Z,10.03
2023-01-15T04:33:13.383Z,10.03
2023-01-15T04:35:41.282Z,10.03
2023-01-15T04:38:09.209Z,8.03
2023-01-15T04:40:54.607Z,12.53
2023-01-15T04:43:39.954Z,7.87
2023-01-15T04:46:08.114Z,7.10
2023-01-15T04:48:37.390Z,11.37
2023-01-15T04:51:06.012Z,10.03
2023-01-15T04:53:34.596Z,9.43
2023-01-15T04:56:03.158Z,7.00
2023-01-15T04:58:31.675Z,9.93
2023-01-15T05:01:00.949Z,7.47
2023-01-15T05:03:29.285Z,8.13
2023-01-15T05:06:02.549Z,11.53
2023-01-15T05:08:30.684Z,8.00
2023-01-15T05:11:02.688Z,10.17
2023-01-15T05:13:33.175Z,8.30
2023-01-15T05:16:10.457Z,12.53
2023-01-15T05:18:38.489Z,9.33
2023-01-15T05:21:08.495Z,11.87
2023-01-15T05:23:37.314Z,11.83
2023-01-15T05:26:06.257Z,9.30
2023-01-15T05:28:34.172Z,10.93
2023-01-15T05:31:07.577Z,9.73
2023-01-15T05:33:36.102Z,12.43
2023-01-15T05:36:05.620Z,9.03
2023-01-15T05:38:35.747Z,7.37
2023-01-15T05:41:27.787Z,9.37
2023-01-15T05:43:56.584Z,8.10
2023-01-15T05:46:24.920Z,15.77
2023-01-15T05:48:52.922Z,11.90
2023-01-15T05:51:21.509Z,11.30
2023-01-15T05:53:50.825Z,10.77
2023-01-15T05:56:18.806Z,11.40
2023-01-15T05:58:46.813Z,9.83
2023-01-15T06:01:14.908Z,13.43
2023-01-15T06:03:43.389Z,10.60
2023-01-15T06:06:14.999Z,8.87
2023-01-15T06:08:43.146Z,11.00
2023-01-15T06:11:13.025Z,13.23
2023-01-15T06:13:41.182Z,8.27
2023-01-15T06:16:12.213Z,13.13
2023-01-15T06:18:40.551Z,11.20
2023-01-15T06:21:10.557Z,11.50
2023-01-15T06:23:39.726Z,11.13
2023-01-15T06:26:10.146Z,7.47
2023-01-15T06:28:39.463Z,10.13
2023-01-15T06:31:08.237Z,8.27
2023-01-15T06:33:36.307Z,10.60
2023-01-15T06:36:05.417Z,10.37
2023-01-15T06:38:33.588Z,15.43
2023-01-15T06:41:02.166Z,13.43
2023-01-15T06:43:48.293Z,9.33
2023-01-15T06:46:44.475Z,8.97
2023-01-15T06:49:12.477Z,11.50
2023-01-15T06:51:40.579Z,8.77
2023-01-15T06:54:08.500Z,7.97
2023-01-15T06:56:39.106Z,10.10
2023-01-15T06:59:07.118Z,11.80
2023-01-15T07:01:36.530Z,12.53
2023-01-15T07:04:04.734Z,7.87
2023-01-15T07:06:33.243Z,10.03
2023-01-15T07:09:01.419Z,8.93
2023-01-15T07:11:29.503Z,12.03
2023-01-15T07:14:06.019Z,8.43
2023-01-15T07:16:34.819Z,9.63
2023-01-15T07:19:05.041Z,9.53
2023-01-15T07:21:33.204Z,9.43
2023-01-15T07:24:02.374Z,10.63
2023-01-15T07:26:30.365Z,12.40
2023-01-15T07:28:58.463Z,11.73
2023-01-15T07:31:26.439Z,7.70
2023-01-15T07:33:54.334Z,9.90
2023-01-15T07:36:23.759Z,9.73
2023-01-15T07:38:51.685Z,8.77
2023-01-15T07:41:37.100Z,10.57
2023-01-15T07:44:22.541Z,10.13
2023-01-15T07:47:08.158Z,9.43
2023-01-15T07:49:48.738Z,10.13
2023-01-15T07:52:20.179Z,7.67
2023-01-15T07:54:49.782Z,11.70
2023-01-15T07:57:21.259Z,11.43
2023-01-15T07:59:49.166Z,7.87
2023-01-15T08:02:17.269Z,10.73
2023-01-15T08:04:45.560Z,7.17
2023-01-15T08:07:13.514Z,8.00
2023-01-15T08:09:42.964Z,9.63
2023-01-15T08:12:29.395Z,11.70
2023-01-15T08:15:16.626Z,12.50
2023-01-15T08:17:46.782Z,10.60
2023-01-15T08:20:17.594Z,12.47
2023-01-15T08:22:45.966Z,9.00
2023-01-15T08:25:17.627Z,7.97
2023-01-15T08:27:46.323Z,8.90
2023-01-15T08:30:17.692Z,9.63
2023-01-15T08:32:45.855Z,8.47
2023-01-15T08:35:14.642Z,11.63
2023-01-15T08:37:44.097Z,10.23
2023-01-15T08:40:13.425Z,8.13
2023-01-15T08:42:42.724Z,12.10
2023-01-15T08:45:11.561Z,11.77
2023-01-15T08:47:39.529Z,9.83
2023-01-15T08:50:09.742Z,9.37
2023-01-15T08:52:38.592Z,9.10
2023-01-15T08:55:07.800Z,8.40
2023-01-15T08:57:35.787Z,12.73
2023-01-15T09:00:05.802Z,11.27
2023-01-15T09:02:33.780Z,14.70
2023-01-15T09:05:01.920Z,10.17
2023-01-15T09:07:30.011Z,10.20
2023-01-15T09:09:57.917Z,13.03
2023-01-15T09:12:27.442Z,9.43
2023-01-15T09:15:01.449Z,8.77
2023-01-15T09:17:34.347Z,11.83
2023-01-15T09:20:03.300Z,7.17
2023-01-15T09:22:31.432Z,10.27
2023-01-15T09:24:59.630Z,13.03
2023-01-15T09:27:28.689Z,9.10
2023-01-15T09:29:57.334Z,9.50
2023-01-15T09:32:25.341Z,11.10
2023-01-15T09:34:54.603Z,10.13
2023-01-15T09:37:22.545Z,15.50
2023-01-15T09:39:50.628Z,10.03
2023-01-15T09:42:40.919Z,8.87
2023-01-15T09:45:19.913Z,9.40
2023-01-15T09:48:01.796Z,7.23
2023-01-15T09:50:40.079Z,7.40
2023-01-15T09:53:38.014Z,9.47
2023-01-15T09:56:06.587Z,5.97
2023-01-15T09:58:36.605Z,8.83
2023-01-15T10:01:05.337Z,5.80
2023-01-15T10:03:40.335Z,7.53
2023-01-15T10:06:16.255Z,7.97
2023-01-15T10:08:46.881Z,6.43
2023-01-15T10:11:54.468Z,6.23
2023-01-15T10:14:39.427Z,7.50
2023-01-15T10:17:22.199Z,7.17
2023-01-15T10:19:50.481Z,10.47
2023-01-15T10:22:38.286Z,7.83
2023-01-15T10:25:15.839Z,6.33
2023-01-15T10:27:48.760Z,6.33
2023-01-15T10:30:19.038Z,6.63
2023-01-15T10:33:01.584Z,12.10
2023-01-15T10:35:39.427Z,7.83
2023-01-15T10:38:17.178Z,8.27
2023-01-15T10:41:01.082Z,8.43
2023-01-15T10:43:40.702Z,7.50
2023-01-15T10:46:14.318Z,6.83
2023-01-15T10:48:46.956Z,6.40
2023-01-15T10:51:18.894Z,7.00
2023-01-15T10:53:51.840Z,8.87
2023-01-15T10:56:30.123Z,7.13
2023-01-15T10:59:05.469Z,5.37
2023-01-15T11:01:33.615Z,8.80
2023-01-15T11:04:02.083Z,8.70
2023-01-15T11:06:32.452Z,5.70
2023-01-15T11:09:11.291Z,8.77
2023-01-15T11:12:02.079Z,5.63
2023-01-15T11:14:54.511Z,9.97
2023-01-15T11:17:41.432Z,5.33
2023-01-15T11:20:24.579Z,8.60
2023-01-15T11:22:52.850Z,7.53
2023-01-15T11:25:30.507Z,5.53
2023-01-15T11:28:01.585Z,5.67
2023-01-15T11:30:32.283Z,8.63
2023-01-15T11:33:04.013Z,5.20
2023-01-15T11:35:33.446Z,6.10
2023-01-15T11:38:06.544Z,6.10
2023-01-15T11:40:35.937Z,10.07
2023-01-15T11:43:21.038Z,6.13
2023-01-15T11:46:09.225Z,5.00
2023-01-15T11:49:03.259Z,7.30
2023-01-15T11:51:34.049Z,4.00
2023-01-15T11:54:06.410Z,4.33
2023-01-15T11:56:37.381Z,7.03
2023-01-15T11:59:11.322Z,4.60
2023-01-15T12:01:50.261Z,4.47
2023-01-15T12:04:31.977Z,1.97
2023-01-15T12:07:00.927Z,2.90
2023-01-15T12:09:42.569Z,6.30
2023-01-15T12:12:23.392Z,2.60
2023-01-15T12:15:09.163Z,1.57
2023-01-15T12:18:04.626Z,2.70
2023-01-15T12:20:48.085Z,2.03
2023-01-15T12:23:47.591Z,3.10
2023-01-15T12:26:25.115Z,1.43
2023-01-15T12:29:03.933Z,2.40
2023-01-15T12:31:38.888Z,2.50
2023-01-15T12:34:17.105Z,2.10
2023-01-15T12:36:51.236Z,3.77
2023-01-15T12:39:24.516Z,2.97
2023-01-15T12:42:13.627Z,4.47
2023-01-15T12:45:04.934Z,4.63
2023-01-15T12:47:43.594Z,4.43
2023-01-15T12:50:33.570Z,3.93
2023-01-15T12:53:11.334Z,4.90
2023-01-15T12:55:45.167Z,6.10
2023-01-15T12:58:22.674Z,5.90
2023-01-15T13:00:59.663Z,8.10
2023-01-15T13:03:35.691Z,6.87
2023-01-15T13:06:08.404Z,7.23
2023-01-15T13:08:41.855Z,7.47
2023-01-15T13:11:13.367Z,7.77
2023-01-15T13:13:43.005Z,8.63
2023-01-15T13:16:20.819Z,8.37
2023-01-15T13:19:03.287Z,7.70
2023-01-15T13:21:35.271Z,6.33
2023-01-15T13:24:19.791Z,8.20
2023-01-15T13:27:11.226Z,7.83
2023-01-15T13:29:52.677Z,8.47
2023-01-15T13:32:25.969Z,7.90
2023-01-15T13:34:59.188Z,6.83
2023-01-15T13:37:30.889Z,5.40
2023-01-15T13:40:03.506Z,7.33
2023-01-15T13:42:33.017Z,7.13
2023-01-15T13:45:07.926Z,10.33
2023-01-15T13:47:42.961Z,9.33
2023-01-15T13:50:17.159Z,9.60
2023-01-15T13:52:45.958Z,8.77
2023-01-15T13:55:22.759Z,5.33
2023-01-15T13:57:50.753Z,7.77
2023-01-15T14:00:30.451Z,6.77
2023-01-15T14:03:01.335Z,5.83
2023-01-15T14:05:32.537Z,6.33
2023-01-15T14:08:02.545Z,5.13
2023-01-15T14:10:40.520Z,7.00
2023-01-15T14:13:30.020Z,7.40
2023-01-15T14:16:12.142Z,5.43
2023-01-15T14:19:07.941Z,6.87
2023-01-15T14:21:45.646Z,7.40
2023-01-15T14:24:50.964Z,6.63
2023-01-15T14:27:49.731Z,6.27
2023-01-15T14:30:46.179Z,6.60
2023-01-15T14:33:26.425Z,7.57
2023-01-15T14:35:55.853Z,4.70
2023-01-15T14:38:26.817Z,10.50
2023-01-15T14:40:59.991Z,7.57
2023-01-15T14:43:29.759Z,9.73
2023-01-15T14:46:11.051Z,6.57
2023-01-15T14:48:40.131Z,5.90
2023-01-15T14:51:15.726Z,8.53
2023-01-15T14:53:46.376Z,7.87
2023-01-15T14:56:20.776Z,7.73
2023-01-15T14:58:57.276Z,7.80
2023-01-15T15:01:43.571Z,10.50
2023-01-15T15:04:28.268Z,8.53
2023-01-15T15:06:59.923Z,9.87
2023-01-15T15:09:36.076Z,6.70
2023-01-15T15:12:21.055Z,7.50
2023-01-15T15:14:54.618Z,7.20
2023-01-15T15:17:32.619Z,8.43
2023-01-15T15:20:19.240Z,7.93
2023-01-15T15:22:52.813Z,4.90
2023-01-15T15:25:24.742Z,5.90
2023-01-15T15:28:03.330Z,8.27
2023-01-15T15:30:34.890Z,7.53
2023-01-15T15:33:05.790Z,6.43
2023-01-15T15:35:35.780Z,9.10
2023-01-15T15:38:07.212Z,8.27
2023-01-15T15:40:37.188Z,4.80
2023-01-15T15:43:32.035Z,7.70
2023-01-15T15:46:17.791Z,10.57
2023-01-15T15:48:53.370Z,6.43
2023-01-15T15:51:33.346Z,6.23
2023-01-15T15:54:11.710Z,6.50
2023-01-15T15:56:43.466Z,6.87
2023-01-15T15:59:19.945Z,7.37
2023-01-15T16:01:48.457Z,9.30
2023-01-15T16:04:19.032Z,7.30
2023-01-15T16:06:47.943Z,7.70
2023-01-15T16:09:21.911Z,6.77
2023-01-15T16:11:51.105Z,9.73
2023-01-15T16:14:21.320Z,9.93
2023-01-15T16:16:51.413Z,8.63
2023-01-15T16:19:25.651Z,7.63
2023-01-15T16:21:54.676Z,7.60
2023-01-15T16:24:29.392Z,6.40
2023-01-15T16:27:02.111Z,4.97
2023-01-15T16:29:32.165Z,6.10
2023-01-15T16:32:00.727Z,7.13
2023-01-15T16:34:32.127Z,6.33
2023-01-15T16:37:01.695Z,5.50
2023-01-15T16:39:37.235Z,5.37
2023-01-15T16:42:05.494Z,4.90
2023-01-15T16:44:38.797Z,5.40
2023-01-15T16:47:07.757Z,4.80
2023-01-15T16:49:36.011Z,3.30
2023-01-15T16:52:25.226Z,3.77
2023-01-15T16:54:56.729Z,4.87
2023-01-15T16:57:32.189Z,2.27
2023-01-15T17:00:03.247Z,4.70
2023-01-15T17:02:41.677Z,2.67
2023-01-15T17:05:24.281Z,3.03
2023-01-15T17:07:54.390Z,4.03
2023-01-15T17:10:27.077Z,3.70
2023-01-15T17:12:57.431Z,3.67
2023-01-15T17:15:40.756Z,3.67
2023-01-15T17:18:36.434Z,3.77
2023-01-15T17:21:04.508Z,3.60
2023-01-15T17:23:37.675Z,4.60
2023-01-15T17:26:08.496Z,2.80
2023-01-15T17:28:36.352Z,3.27
2023-01-15T17:31:04.604Z,3.63
2023-01-15T17:33:32.650Z,2.87
2023-01-15T17:36:01.461Z,3.90
2023-01-15T17:38:29.391Z,3.03
2023-01-15T17:41:00.478Z,3.60
2023-01-15T17:43:29.833Z,7.00
2023-01-15T17:46:00.009Z,3.43
2023-01-15T17:48:28.393Z,4.73
2023-01-15T17:50:56.408Z,4.27
2023-01-15T17:53:24.360Z,5.47
2023-01-15T17:56:09.761Z,6.60
2023-01-15T17:59:08.334Z,3.73
2023-01-15T18:01:57.361Z,2.83
2023-01-15T18:04:47.234Z,4.53
2023-01-15T18:07:17.514Z,4.60
2023-01-15T18:09:46.008Z,5.30
2023-01-15T18:12:14.732Z,5.40
2023-01-15T18:14:44.153Z,5.30
2023-01-15T18:17:12.302Z,6.50
2023-01-15T18:19:40.343Z,6.17
2023-01-15T18:22:08.759Z,6.70
2023-01-15T18:24:36.648Z,5.10
2023-01-15T18:27:04.726Z,5.37
2023-01-15T18:29:32.886Z,7.20
2023-01-15T18:32:02.077Z,5.93
2023-01-15T18:34:30.173Z,4.10
2023-01-15T18:36:58.074Z,5.87
2023-01-15T18:39:25.910Z,4.67
2023-01-15T18:42:22.950Z,5.73
2023-01-15T18:45:08.529Z,6.43
2023-01-15T18:47:38.257Z,3.93
2023-01-15T18:50:06.901Z,3.90
2023-01-15T18:52:51.359Z,5.53
2023-01-15T18:55:20.184Z,6.87
2023-01-15T18:57:48.054Z,4.93
2023-01-15T19:00:16.501Z,6.97
2023-01-15T19:02:46.249Z,5.63
2023-01-15T19:05:15.389Z,3.07
2023-01-15T19:07:43.777Z,5.70
2023-01-15T19:10:13.324Z,5.43
2023-01-15T19:12:41.517Z,7.67
2023-01-15T19:15:30.549Z,5.40
2023-01-15T19:18:17.511Z,5.43
2023-01-15T19:20:45.792Z,6.30
2023-01-15T19:23:13.723Z,4.97
2023-01-15T19:25:42.989Z,6.40
2023-01-15T19:28:16.023Z,7.40
2023-01-15T19:31:05.469Z,6.40
2023-01-15T19:33:35.671Z,6.77
2023-01-15T19:36:03.777Z,7.13
2023-01-15T19:38:33.196Z,7.27
2023-01-15T19:41:21.497Z,6.10
2023-01-15T19:44:06.862Z,8.53
2023-01-15T19:46:52.866Z,6.20
2023-01-15T19:49:41.517Z,6.97
2023-01-15T19:52:26.654Z,6.20
2023-01-15T19:54:57.372Z,5.33
2023-01-15T19:57:25.399Z,4.93
2023-01-15T19:59:53.781Z,4.93
2023-01-15T20:02:22.038Z,6.23
2023-01-15T20:04:51.659Z,5.80
2023-01-15T20:07:19.949Z,5.77
2023-01-15T20:09:47.842Z,4.63
2023-01-15T20:12:33.600Z,5.47
2023-01-15T20:15:01.649Z,5.37
2023-01-15T20:17:30.761Z,3.83
2023-01-15T20:20:00.697Z,4.20
2023-01-15T20:22:30.564Z,6.63
2023-01-15T20:24:58.578Z,5.03
2023-01-15T20:27:26.630Z,6.30
2023-01-15T20:29:55.011Z,4.30
2023-01-15T20:32:23.305Z,5.17
2023-01-15T20:34:51.300Z,6.00
2023-01-15T20:37:20.532Z,6.27
2023-01-15T20:39:48.516Z,4.17
2023-01-15T20:42:34.146Z,5.40
2023-01-15T20:45:07.592Z,4.77
2023-01-15T20:47:52.792Z,7.23
2023-01-15T20:50:20.946Z,5.23
2023-01-15T20:52:52.104Z,4.37
2023-01-15T20:55:21.097Z,7.00
2023-01-15T20:57:48.935Z,6.57
2023-01-15T21:00:19.428Z,5.30
2023-01-15T21:02:47.964Z,6.87
2023-01-15T21:05:16.220Z,5.50
2023-01-15T21:07:44.146Z,6.10
2023-01-15T21:10:14.743Z,5.73
2023-01-15T21:12:42.625Z,4.40
2023-01-15T21:15:12.161Z,4.40
2023-01-15T21:17:40.638Z,7.33
2023-01-15T21:20:10.561Z,5.20
2023-01-15T21:22:38.660Z,4.47
2023-01-15T21:25:09.894Z,5.30
2023-01-15T21:27:41.894Z,3.87
2023-01-15T21:30:10.930Z,5.57
2023-01-15T21:32:38.808Z,7.03
2023-01-15T21:35:07.382Z,4.83
2023-01-15T21:37:35.250Z,6.73
2023-01-15T21:40:03.141Z,6.87
2023-01-15T21:42:48.551Z,7.30
2023-01-15T21:45:17.875Z,6.43
2023-01-15T21:47:45.759Z,5.97
2023-01-15T21:50:13.717Z,5.23
2023-01-15T21:52:41.611Z,7.77
2023-01-15T21:55:10.472Z,4.20
2023-01-15T21:57:38.463Z,7.17
2023-01-15T22:00:08.193Z,4.20
2023-01-15T22:02:37.535Z,6.93
2023-01-15T22:05:08.408Z,6.57
2023-01-15T22:07:37.070Z,5.77
2023-01-15T22:10:05.449Z,5.03
2023-01-15T22:12:37.411Z,5.17
2023-01-15T22:15:06.149Z,3.83
2023-01-15T22:17:34.032Z,4.03
2023-01-15T22:20:03.382Z,3.90
2023-01-15T22:22:34.068Z,5.97
2023-01-15T22:25:01.912Z,4.27
2023-01-15T22:27:30.608Z,5.43
2023-01-15T22:29:58.477Z,9.50
2023-01-15T22:32:26.425Z,8.73
2023-01-15T22:34:54.380Z,5.07
2023-01-15T22:37:23.551Z,4.47
2023-01-15T22:39:51.340Z,5.37
2023-01-15T22:42:25.234Z,5.43
2023-01-15T22:44:53.226Z,3.63
2023-01-15T22:47:21.821Z,6.23
2023-01-15T22:49:49.991Z,3.83
2023-01-15T22:52:17.912Z,4.17
2023-01-15T22:54:47.464Z,6.23
2023-01-15T22:57:16.796Z,4.30
2023-01-15T22:59:45.368Z,3.13
2023-01-15T23:02:13.843Z,4.40
2023-01-15T23:04:41.981Z,3.80
2023-01-15T23:07:10.874Z,3.00
2023-01-15T23:09:40.357Z,3.80
2023-01-15T23:12:09.837Z,3.53
2023-01-15T23:14:37.771Z,4.17
2023-01-15T23:17:05.602Z,3.77
2023-01-15T23:19:34.513Z,3.47
2023-01-15T23:22:02.350Z,3.10
2023-01-15T23:24:30.260Z,3.00
2023-01-15T23:26:58.093Z,2.40
2023-01-15T23:29:27.698Z,2.50
2023-01-15T23:31:55.538Z,3.67
2023-01-15T23:34:24.156Z,2.70
2023-01-15T23:36:52.080Z,2.93
2023-01-15T23:39:20.014Z,4.43
2023-01-15T23:42:05.426Z,4.10
2023-01-15T23:44:52.018Z,4.03
2023-01-15T23:47:19.969Z,5.00
2023-01-15T23:49:47.816Z,5.07
2023-01-15T23:52:16.007Z,3.73
2023-01-15T23:54:44.053Z,4.57
2023-01-15T23:57:11.941Z,4.80
2023-01-15T23:59:41.156Z,3.80
